createdAt,value
2024-02-14T00:00:48.453Z,4.10
2024-02-14T00:03:35.830Z,4.10
2024-02-14T00:06:05.361Z,4.10
2024-02-14T00:08:32.958Z,4.10
2024-02-14T00:11:01.796Z,4.20
2024-02-14T00:13:29.005Z,4.20
2024-02-14T00:15:57.815Z,4.20
2024-02-14T00:18:25.344Z,4.30
2024-02-14T00:20:52.831Z,4.20
2024-02-14T00:23:19.960Z,4.20
2024-02-14T00:25:47.244Z,4.20
2024-02-14T00:28:14.451Z,4.20
2024-02-14T00:30:41.844Z,4.10
2024-02-14T00:33:09.103Z,4.10
2024-02-14T00:35:36.611Z,4.00
2024-02-14T00:38:03.781Z,4.00
2024-02-14T00:40:31.107Z,3.90
2024-02-14T00:42:58.220Z,3.90
2024-02-14T00:45:25.593Z,3.80
2024-02-14T00:47:52.881Z,3.80
2024-02-14T00:50:20.414Z,3.70
2024-02-14T00:52:47.434Z,3.70
2024-02-14T00:55:14.839Z,3.70
2024-02-14T00:57:41.873Z,3.70
2024-02-14T01:00:10.142Z,3.70
2024-02-14T01:02:37.631Z,3.70
2024-02-14T01:05:05.738Z,3.60
2024-02-14T01:07:33.000Z,3.60
2024-02-14T01:10:00.622Z,3.60
2024-02-14T01:12:27.828Z,3.50
2024-02-14T01:14:55.382Z,3.50
2024-02-14T01:17:22.887Z,3.50
2024-02-14T01:19:50.425Z,3.50
2024-02-14T01:22:17.911Z,3.50
2024-02-14T01:24:45.490Z,3.50
2024-02-14T01:27:12.598Z,3.40
2024-02-14T01:29:40.001Z,3.40
2024-02-14T01:32:08.091Z,3.40
2024-02-14T01:34:35.532Z,3.40
2024-02-14T01:37:02.737Z,3.40
2024-02-14T01:39:30.076Z,3.40
2024-02-14T01:41:57.130Z,3.30
2024-02-14T01:44:24.577Z,3.30
2024-02-14T01:46:54.164Z,3.30
2024-02-14T01:49:21.767Z,3.20
2024-02-14T01:51:49.203Z,3.20
2024-02-14T01:54:17.368Z,3.20
2024-02-14T01:56:45.523Z,3.10
2024-02-14T01:59:14.362Z,3.10
2024-02-14T02:01:41.627Z,3.10
2024-02-14T02:04:09.234Z,3.00
2024-02-14T02:06:36.382Z,3.00
2024-02-14T02:09:04.204Z,2.90
2024-02-14T02:11:31.957Z,2.90
2024-02-14T02:13:59.309Z,2.80
2024-02-14T02:16:26.398Z,2.80
2024-02-14T02:18:53.902Z,2.80
2024-02-14T02:21:24.739Z,2.70
2024-02-14T02:23:52.337Z,2.70
2024-02-14T02:26:19.463Z,2.70
2024-02-14T02:28:47.209Z,2.60
2024-02-14T02:31:14.393Z,2.60
2024-02-14T02:33:42.005Z,2.40
2024-02-14T02:36:11.035Z,2.50
2024-02-14T02:38:38.740Z,2.50
2024-02-14T02:41:09.113Z,2.40
2024-02-14T02:43:36.794Z,2.40
2024-02-14T02:46:03.829Z,2.30
2024-02-14T02:48:32.924Z,2.30
2024-02-14T02:51:00.459Z,2.30
2024-02-14T02:53:28.043Z,2.20
2024-02-14T02:55:55.641Z,2.20
2024-02-14T02:58:23.076Z,2.20
2024-02-14T03:00:50.547Z,2.20
2024-02-14T03:03:17.937Z,2.10
2024-02-14T03:05:47.843Z,2.10
2024-02-14T03:08:16.875Z,2.20
2024-02-14T03:10:46.059Z,2.10
2024-02-14T03:13:13.445Z,2.10
2024-02-14T03:15:40.512Z,2.00
2024-02-14T03:18:10.895Z,2.00
2024-02-14T03:20:38.151Z,2.10
2024-02-14T03:23:05.556Z,2.20
2024-02-14T03:25:32.905Z,2.00
2024-02-14T03:28:00.215Z,2.00
2024-02-14T03:30:28.651Z,2.00
2024-02-14T03:32:57.211Z,2.00
2024-02-14T03:35:24.497Z,2.00
2024-02-14T03:37:54.011Z,2.00
2024-02-14T03:40:23.968Z,2.00
2024-02-14T03:42:51.274Z,2.00
2024-02-14T03:45:18.397Z,2.00
2024-02-14T03:47:45.827Z,2.70
2024-02-14T03:50:12.914Z,2.20
2024-02-14T03:52:40.424Z,2.10
2024-02-14T03:55:08.093Z,2.10
2024-02-14T03:57:39.715Z,2.10
2024-02-14T04:00:11.919Z,2.00
2024-02-14T04:02:41.523Z,2.10
2024-02-14T04:05:09.679Z,2.10
2024-02-14T04:07:38.417Z,2.00
2024-02-14T04:10:05.858Z,2.00
2024-02-14T04:12:33.587Z,1.90
2024-02-14T04:15:00.763Z,1.90
2024-02-14T04:17:28.367Z,2.50
2024-02-14T04:19:55.518Z,1.90
2024-02-14T04:22:22.918Z,1.80
2024-02-14T04:24:49.941Z,1.80
2024-02-14T04:27:17.229Z,1.80
2024-02-14T04:29:48.007Z,1.80
2024-02-14T04:32:15.755Z,1.70
2024-02-14T04:34:44.709Z,1.50
2024-02-14T04:37:15.223Z,1.70
2024-02-14T04:39:43.479Z,1.70
2024-02-14T04:42:13.418Z,1.70
2024-02-14T04:44:40.609Z,1.60
2024-02-14T04:47:10.792Z,1.60
2024-02-14T04:49:38.157Z,1.90
2024-02-14T04:52:05.616Z,1.60
2024-02-14T04:54:33.020Z,1.60
2024-02-14T04:57:03.039Z,1.50
2024-02-14T04:59:30.766Z,1.50
2024-02-14T05:01:58.597Z,1.50
2024-02-14T05:04:25.843Z,1.50
2024-02-14T05:06:57.257Z,1.50
2024-02-14T05:09:26.344Z,1.30
2024-02-14T05:11:54.005Z,1.50
2024-02-14T05:14:21.154Z,1.50
2024-02-14T05:16:48.515Z,1.50
2024-02-14T05:19:15.929Z,1.40
2024-02-14T05:21:43.490Z,1.40
2024-02-14T05:24:10.748Z,1.40
2024-02-14T05:26:38.622Z,1.40
2024-02-14T05:29:06.436Z,1.40
2024-02-14T05:31:46.942Z,1.30
2024-02-14T05:34:14.260Z,1.40
2024-02-14T05:36:43.853Z,1.30
2024-02-14T05:39:11.127Z,1.40
2024-02-14T05:41:38.633Z,1.80
2024-02-14T05:44:05.736Z,1.40
2024-02-14T05:46:32.995Z,1.40
2024-02-14T05:49:00.442Z,1.50
2024-02-14T05:51:28.024Z,1.40
2024-02-14T05:53:55.072Z,1.40
2024-02-14T05:56:22.641Z,1.40
2024-02-14T05:58:49.630Z,1.60
2024-02-14T06:01:17.290Z,1.40
2024-02-14T06:03:44.514Z,1.40
2024-02-14T06:06:12.693Z,1.50
2024-02-14T06:08:39.900Z,1.50
2024-02-14T06:11:07.430Z,1.50
2024-02-14T06:13:34.833Z,2.10
2024-02-14T06:16:02.465Z,1.60
2024-02-14T06:18:29.596Z,1.60
2024-02-14T06:20:57.063Z,1.60
2024-02-14T06:23:24.114Z,1.70
2024-02-14T06:25:51.483Z,1.70
2024-02-14T06:28:18.501Z,1.70
2024-02-14T06:30:45.784Z,1.80
2024-02-14T06:33:13.025Z,2.30
2024-02-14T06:35:40.651Z,1.90
2024-02-14T06:38:08.024Z,2.10
2024-02-14T06:40:35.581Z,2.00
2024-02-14T06:43:02.871Z,2.00
2024-02-14T06:45:30.505Z,2.00
2024-02-14T06:47:57.746Z,2.10
2024-02-14T06:50:28.847Z,2.10
2024-02-14T06:53:00.512Z,2.10
2024-02-14T06:55:28.690Z,2.20
2024-02-14T06:57:55.807Z,2.20
2024-02-14T07:00:23.229Z,2.30
2024-02-14T07:02:50.337Z,2.30
2024-02-14T07:05:17.830Z,2.30
2024-02-14T07:07:44.942Z,2.40
2024-02-14T07:10:12.389Z,2.40
2024-02-14T07:12:39.554Z,2.40
2024-02-14T07:15:07.315Z,2.40
2024-02-14T07:17:34.507Z,2.50
2024-02-14T07:20:05.189Z,2.50
2024-02-14T07:22:32.433Z,2.60
2024-02-14T07:24:59.734Z,2.60
2024-02-14T07:27:26.776Z,2.60
2024-02-14T07:29:54.196Z,2.70
2024-02-14T07:32:21.371Z,2.70
2024-02-14T07:34:48.984Z,2.80
2024-02-14T07:37:21.007Z,2.80
2024-02-14T07:39:49.140Z,2.80
2024-02-14T07:42:16.645Z,2.90
2024-02-14T07:44:44.391Z,2.90
2024-02-14T07:47:11.449Z,2.90
2024-02-14T07:49:39.831Z,3.20
2024-02-14T07:52:07.166Z,3.00
2024-02-14T07:54:34.559Z,3.00
2024-02-14T07:57:01.580Z,3.00
2024-02-14T07:59:31.049Z,3.10
2024-02-14T08:01:58.994Z,3.10
2024-02-14T08:04:26.237Z,3.10
2024-02-14T08:06:53.743Z,3.10
2024-02-14T08:09:20.841Z,3.30
2024-02-14T08:11:48.562Z,3.20
2024-02-14T08:14:15.669Z,3.20
2024-02-14T08:16:43.076Z,3.30
2024-02-14T08:19:10.584Z,3.30
2024-02-14T08:21:38.154Z,3.40
2024-02-14T08:24:06.379Z,3.40
2024-02-14T08:26:34.029Z,3.50
2024-02-14T08:29:01.420Z,3.60
2024-02-14T08:31:29.003Z,3.70
2024-02-14T08:33:56.358Z,3.80
2024-02-14T08:36:23.895Z,4.20
2024-02-14T08:38:51.110Z,4.00
2024-02-14T08:41:19.873Z,4.10
2024-02-14T08:43:48.055Z,4.20
2024-02-14T08:46:15.833Z,4.30
2024-02-14T08:48:50.120Z,4.40
2024-02-14T08:51:18.461Z,4.30
2024-02-14T08:53:46.629Z,4.40
2024-02-14T08:56:15.445Z,4.50
2024-02-14T08:58:43.141Z,4.60
2024-02-14T09:01:15.235Z,4.60
2024-02-14T09:03:49.827Z,4.70
2024-02-14T09:06:22.126Z,4.80
2024-02-14T09:08:49.870Z,4.80
2024-02-14T09:11:17.318Z,4.80
2024-02-14T09:13:44.361Z,4.80
2024-02-14T09:16:12.595Z,4.90
2024-02-14T09:18:40.204Z,4.90
2024-02-14T09:21:08.280Z,5.00
2024-02-14T09:23:35.889Z,5.10
2024-02-14T09:26:03.948Z,5.10
2024-02-14T09:28:31.282Z,5.20
2024-02-14T09:30:58.850Z,5.20
2024-02-14T09:33:26.175Z,5.30
2024-02-14T09:35:54.403Z,5.30
2024-02-14T09:38:21.750Z,5.40
2024-02-14T09:40:51.776Z,5.40
2024-02-14T09:43:26.540Z,5.50
2024-02-14T09:45:55.454Z,5.60
2024-02-14T09:48:23.203Z,5.60
2024-02-14T09:50:51.065Z,5.70
2024-02-14T09:53:18.312Z,5.80
2024-02-14T09:55:46.985Z,5.90
2024-02-14T09:58:14.223Z,6.00
2024-02-14T10:00:42.496Z,6.10
2024-02-14T10:03:09.846Z,6.20
2024-02-14T10:05:37.462Z,6.20
2024-02-14T10:08:04.704Z,6.30
2024-02-14T10:10:36.456Z,6.40
2024-02-14T10:13:07.062Z,6.50
2024-02-14T10:15:34.860Z,6.60
2024-02-14T10:18:03.517Z,6.70
2024-02-14T10:20:35.568Z,6.80
2024-02-14T10:23:06.406Z,6.80
2024-02-14T10:25:35.833Z,6.90
2024-02-14T10:28:09.350Z,7.00
2024-02-14T10:30:39.072Z,7.10
2024-02-14T10:33:16.993Z,7.30
2024-02-14T10:35:53.494Z,7.40
2024-02-14T10:38:21.890Z,7.50
2024-02-14T10:40:50.060Z,7.60
2024-02-14T10:43:17.143Z,7.70
2024-02-14T10:45:44.632Z,7.80
2024-02-14T10:48:13.201Z,7.90
2024-02-14T10:50:42.636Z,8.40
2024-02-14T10:53:13.698Z,8.90
2024-02-14T10:55:42.416Z,9.60
2024-02-14T10:58:11.460Z,10.00
2024-02-14T11:00:39.275Z,10.10
2024-02-14T11:03:07.343Z,10.00
2024-02-14T11:05:44.085Z,9.80
2024-02-14T11:08:11.265Z,9.70
2024-02-14T11:10:38.919Z,9.50
2024-02-14T11:13:10.610Z,9.20
2024-02-14T11:15:38.044Z,9.20
2024-02-14T11:18:05.920Z,9.10
2024-02-14T11:20:34.425Z,9.10
2024-02-14T11:23:07.293Z,9.10
2024-02-14T11:25:37.750Z,9.10
2024-02-14T11:28:15.448Z,9.00
2024-02-14T11:30:43.987Z,9.00
2024-02-14T11:33:22.044Z,9.00
2024-02-14T11:35:54.119Z,9.00
2024-02-14T11:38:21.877Z,8.90
2024-02-14T11:40:50.295Z,8.90
2024-02-14T11:43:19.298Z,8.90
2024-02-14T11:45:50.508Z,8.90
2024-02-14T11:48:18.641Z,8.90
2024-02-14T11:50:46.499Z,9.10
2024-02-14T11:53:16.002Z,9.20
2024-02-14T11:55:43.728Z,9.40
2024-02-14T11:58:14.530Z,9.60
2024-02-14T12:00:42.559Z,9.70
2024-02-14T12:03:11.950Z,9.80
2024-02-14T12:05:39.781Z,9.90
2024-02-14T12:08:07.934Z,9.90
2024-02-14T12:10:36.487Z,10.00
2024-02-14T12:13:10.190Z,9.90
2024-02-14T12:15:46.020Z,9.80
2024-02-14T12:18:13.294Z,9.80
2024-02-14T12:20:40.982Z,9.80
2024-02-14T12:23:08.162Z,9.80
2024-02-14T12:25:35.666Z,9.90
2024-02-14T12:28:02.735Z,9.90
2024-02-14T12:30:46.872Z,9.90
2024-02-14T12:33:14.744Z,9.90
2024-02-14T12:35:48.512Z,9.90
2024-02-14T12:38:17.037Z,9.90
2024-02-14T12:40:47.948Z,9.90
2024-02-14T12:43:15.787Z,9.90
2024-02-14T12:45:43.287Z,9.90
2024-02-14T12:48:11.522Z,9.90
2024-02-14T12:50:39.483Z,9.90
2024-02-14T12:53:07.647Z,10.00
2024-02-14T12:55:35.104Z,10.00
2024-02-14T12:58:02.575Z,10.10
2024-02-14T13:00:32.797Z,10.10
2024-02-14T13:03:01.151Z,10.10
2024-02-14T13:05:28.684Z,10.10
2024-02-14T13:07:55.843Z,10.00
2024-02-14T13:10:23.356Z,10.00
2024-02-14T13:12:52.143Z,10.00
2024-02-14T13:15:19.762Z,10.00
2024-02-14T13:17:47.288Z,10.10
2024-02-14T13:20:16.401Z,10.10
2024-02-14T13:22:43.884Z,10.00
2024-02-14T13:25:11.263Z,10.00
2024-02-14T13:27:39.473Z,10.00
2024-02-14T13:30:08.910Z,10.10
2024-02-14T13:32:36.121Z,10.10
2024-02-14T13:35:05.659Z,10.10
2024-02-14T13:37:34.252Z,10.10
2024-02-14T13:40:02.351Z,10.10
2024-02-14T13:42:29.510Z,10.20
2024-02-14T13:44:57.448Z,10.20
2024-02-14T13:47:25.723Z,10.20
2024-02-14T13:49:53.314Z,10.20
2024-02-14T13:52:21.592Z,10.20
2024-02-14T13:54:49.116Z,10.20
2024-02-14T13:57:18.681Z,10.20
2024-02-14T13:59:48.065Z,10.30
2024-02-14T14:02:15.122Z,10.30
2024-02-14T14:04:42.516Z,10.30
2024-02-14T14:07:09.946Z,10.30
2024-02-14T14:09:38.463Z,10.40
2024-02-14T14:12:05.646Z,10.60
2024-02-14T14:14:33.089Z,10.70
2024-02-14T14:17:00.243Z,11.00
2024-02-14T14:19:28.196Z,11.10
2024-02-14T14:21:56.020Z,11.20
2024-02-14T14:24:24.633Z,11.30
2024-02-14T14:26:52.408Z,11.30
2024-02-14T14:29:19.791Z,11.30
2024-02-14T14:31:47.015Z,11.20
2024-02-14T14:34:14.379Z,11.10
2024-02-14T14:36:42.366Z,10.90
2024-02-14T14:39:12.576Z,10.80
2024-02-14T14:41:40.219Z,10.70
2024-02-14T14:44:07.628Z,10.50
2024-02-14T14:46:36.601Z,10.30
2024-02-14T14:49:04.629Z,10.10
2024-02-14T14:51:31.933Z,10.00
2024-02-14T14:53:59.392Z,9.80
2024-02-14T14:56:28.242Z,9.70
2024-02-14T14:58:55.567Z,9.50
2024-02-14T15:01:22.838Z,9.40
2024-02-14T15:03:50.177Z,9.20
2024-02-14T15:06:17.335Z,9.10
2024-02-14T15:08:45.106Z,9.00
2024-02-14T15:11:15.978Z,8.90
2024-02-14T15:13:43.940Z,8.90
2024-02-14T15:16:11.236Z,8.80
2024-02-14T15:18:38.947Z,8.70
2024-02-14T15:21:06.110Z,8.60
2024-02-14T15:23:33.671Z,8.60
2024-02-14T15:26:04.181Z,8.50
2024-02-14T15:28:31.663Z,8.50
2024-02-14T15:31:17.344Z,8.40
2024-02-14T15:33:44.884Z,8.30
2024-02-14T15:36:16.649Z,8.30
2024-02-14T15:38:44.270Z,8.30
2024-02-14T15:41:11.402Z,8.20
2024-02-14T15:43:38.839Z,8.20
2024-02-14T15:46:05.840Z,8.10
2024-02-14T15:48:34.475Z,8.10
2024-02-14T15:51:01.993Z,8.10
2024-02-14T15:53:31.581Z,8.00
2024-02-14T15:55:59.229Z,8.00
2024-02-14T15:58:27.316Z,7.90
2024-02-14T16:00:57.071Z,7.90
2024-02-14T16:03:24.604Z,7.80
2024-02-14T16:05:52.561Z,7.80
2024-02-14T16:08:20.273Z,7.80
2024-02-14T16:10:48.669Z,7.70
2024-02-14T16:13:16.264Z,7.70
2024-02-14T16:15:43.957Z,7.60
2024-02-14T16:18:11.351Z,7.60
2024-02-14T16:20:38.684Z,7.50
2024-02-14T16:23:07.107Z,7.40
2024-02-14T16:25:36.740Z,7.30
2024-02-14T16:28:05.023Z,7.30
2024-02-14T16:30:32.038Z,7.20
2024-02-14T16:33:00.201Z,7.20
2024-02-14T16:35:27.484Z,7.10
2024-02-14T16:37:55.341Z,7.00
2024-02-14T16:40:22.376Z,7.00
2024-02-14T16:42:49.786Z,6.90
2024-02-14T16:45:19.235Z,6.90
2024-02-14T16:47:47.150Z,6.90
2024-02-14T16:50:14.292Z,6.90
2024-02-14T16:52:41.649Z,6.90
2024-02-14T16:55:09.011Z,6.90
2024-02-14T16:57:36.649Z,6.70
2024-02-14T17:00:05.521Z,6.90
2024-02-14T17:02:33.199Z,6.80
2024-02-14T17:05:00.332Z,6.80
2024-02-14T17:07:27.865Z,6.90
2024-02-14T17:09:58.251Z,6.90
2024-02-14T17:12:26.130Z,6.80
2024-02-14T17:14:55.336Z,6.90
2024-02-14T17:17:23.102Z,6.90
2024-02-14T17:19:50.405Z,6.90
2024-02-14T17:22:24.712Z,6.90
2024-02-14T17:24:57.104Z,6.90
2024-02-14T17:27:24.878Z,6.90
2024-02-14T17:29:51.976Z,6.90
2024-02-14T17:32:31.526Z,6.90
2024-02-14T17:35:04.576Z,6.90
2024-02-14T17:37:34.907Z,6.90
2024-02-14T17:40:02.108Z,6.90
2024-02-14T17:42:29.511Z,6.90
2024-02-14T17:44:56.676Z,6.80
2024-02-14T17:47:24.420Z,6.80
2024-02-14T17:49:54.239Z,6.80
2024-02-14T17:52:22.010Z,6.80
2024-02-14T17:54:49.144Z,6.80
2024-02-14T17:57:17.527Z,6.80
2024-02-14T17:59:45.946Z,6.80
2024-02-14T18:02:13.370Z,6.80
2024-02-14T18:04:40.592Z,6.80
2024-02-14T18:07:08.169Z,6.70
2024-02-14T18:09:35.346Z,6.70
2024-02-14T18:12:05.420Z,6.70
2024-02-14T18:14:33.344Z,6.70
2024-02-14T18:17:00.828Z,6.70
2024-02-14T18:19:28.317Z,6.70
2024-02-14T18:21:56.229Z,6.60
2024-02-14T18:24:23.618Z,6.60
2024-02-14T18:26:51.090Z,5.40
2024-02-14T18:29:19.382Z,6.50
2024-02-14T18:31:46.851Z,6.50
2024-02-14T18:34:14.527Z,6.50
2024-02-14T18:36:42.200Z,6.50
2024-02-14T18:39:10.573Z,6.50
2024-02-14T18:41:38.382Z,6.40
2024-02-14T18:44:06.708Z,6.50
2024-02-14T18:46:34.291Z,6.40
2024-02-14T18:49:01.589Z,6.40
2024-02-14T18:51:29.160Z,6.40
2024-02-14T18:53:56.452Z,6.40
2024-02-14T18:56:24.697Z,6.40
2024-02-14T18:58:51.806Z,6.40
2024-02-14T19:01:26.576Z,6.40
2024-02-14T19:03:57.344Z,7.20
2024-02-14T19:06:25.107Z,6.40
2024-02-14T19:08:52.764Z,6.40
2024-02-14T19:11:20.434Z,6.40
2024-02-14T19:13:47.599Z,6.40
2024-02-14T19:16:24.128Z,6.40
2024-02-14T19:18:56.036Z,6.40
2024-02-14T19:21:23.854Z,6.40
2024-02-14T19:23:50.948Z,6.40
2024-02-14T19:26:20.516Z,6.40
2024-02-14T19:28:47.730Z,6.40
2024-02-14T19:31:15.085Z,6.40
2024-02-14T19:33:43.237Z,6.40
2024-02-14T19:36:11.332Z,6.40
2024-02-14T19:38:38.837Z,6.40
2024-02-14T19:41:06.840Z,6.40
2024-02-14T19:43:39.425Z,6.40
2024-02-14T19:46:07.954Z,6.40
2024-02-14T19:48:36.429Z,6.40
2024-02-14T19:51:04.724Z,6.40
2024-02-14T19:53:32.632Z,6.50
2024-02-14T19:56:00.190Z,6.40
2024-02-14T19:58:27.850Z,6.40
2024-02-14T20:00:55.168Z,6.40
2024-02-14T20:03:22.581Z,6.40
2024-02-14T20:05:50.180Z,6.40
2024-02-14T20:08:19.638Z,6.40
2024-02-14T20:10:47.057Z,6.40
2024-02-14T20:13:14.520Z,6.40
2024-02-14T20:15:41.751Z,6.40
2024-02-14T20:18:12.918Z,6.40
2024-02-14T20:20:41.270Z,6.30
2024-02-14T20:23:09.112Z,6.40
2024-02-14T20:25:36.332Z,6.40
2024-02-14T20:28:03.778Z,6.40
2024-02-14T20:30:31.004Z,6.40
2024-02-14T20:32:59.858Z,6.30
2024-02-14T20:35:28.125Z,6.40
2024-02-14T20:37:57.674Z,6.40
2024-02-14T20:40:26.070Z,6.30
2024-02-14T20:42:53.502Z,6.30
2024-02-14T20:45:21.498Z,6.30
2024-02-14T20:47:49.253Z,6.30
2024-02-14T20:50:16.486Z,6.30
2024-02-14T20:52:44.465Z,6.30
2024-02-14T20:55:11.547Z,6.30
2024-02-14T20:57:38.903Z,6.30
2024-02-14T21:00:07.488Z,6.20
2024-02-14T21:02:35.203Z,6.30
2024-02-14T21:05:02.819Z,6.30
2024-02-14T21:07:30.401Z,6.30
2024-02-14T21:09:57.453Z,6.20
2024-02-14T21:12:24.856Z,6.20
2024-02-14T21:14:51.991Z,6.20
2024-02-14T21:17:19.335Z,6.20
2024-02-14T21:19:46.609Z,6.20
2024-02-14T21:22:13.994Z,6.20
2024-02-14T21:24:42.806Z,6.90
2024-02-14T21:27:11.756Z,6.20
2024-02-14T21:29:39.078Z,6.20
2024-02-14T21:32:07.392Z,6.10
2024-02-14T21:34:34.542Z,6.20
2024-02-14T21:37:02.465Z,6.20
2024-02-14T21:39:29.741Z,6.20
2024-02-14T21:41:57.792Z,6.20
2024-02-14T21:44:28.551Z,6.20
2024-02-14T21:46:57.085Z,6.20
2024-02-14T21:49:24.825Z,6.20
2024-02-14T21:51:53.820Z,6.20
2024-02-14T21:54:21.147Z,6.20
2024-02-14T21:56:48.554Z,6.20
2024-02-14T21:59:16.430Z,6.20
2024-02-14T22:01:43.842Z,6.20
2024-02-14T22:04:11.038Z,6.20
2024-02-14T22:06:38.466Z,6.10
2024-02-14T22:09:07.150Z,6.10
2024-02-14T22:11:37.103Z,6.10
2024-02-14T22:14:04.439Z,6.10
2024-02-14T22:16:32.820Z,6.10
2024-02-14T22:19:01.425Z,6.10
2024-02-14T22:21:29.318Z,6.10
2024-02-14T22:23:56.372Z,6.00
2024-02-14T22:26:23.824Z,6.00
2024-02-14T22:28:50.945Z,6.00
2024-02-14T22:31:18.349Z,6.10
2024-02-14T22:33:45.601Z,6.00
2024-02-14T22:36:13.985Z,6.00
2024-02-14T22:38:41.424Z,6.00
2024-02-14T22:41:08.887Z,6.00
2024-02-14T22:43:36.192Z,6.00
2024-02-14T22:46:03.535Z,6.00
2024-02-14T22:48:31.078Z,6.00
2024-02-14T22:50:59.071Z,6.00
2024-02-14T22:53:26.276Z,6.00
2024-02-14T22:55:53.695Z,6.00
2024-02-14T22:58:20.750Z,6.00
2024-02-14T23:00:48.115Z,6.00
2024-02-14T23:03:16.386Z,6.00
2024-02-14T23:05:45.419Z,6.00
2024-02-14T23:08:12.739Z,6.00
2024-02-14T23:10:40.538Z,6.00
2024-02-14T23:13:07.977Z,6.00
2024-02-14T23:15:35.453Z,6.00
2024-02-14T23:18:02.621Z,5.90
2024-02-14T23:20:30.732Z,6.00
2024-02-14T23:22:57.801Z,6.00
2024-02-14T23:25:25.434Z,5.90
2024-02-14T23:27:52.523Z,6.00
2024-02-14T23:30:20.143Z,4.10
2024-02-14T23:32:47.629Z,5.90
2024-02-14T23:35:15.559Z,5.90
2024-02-14T23:37:42.653Z,5.90
2024-02-14T23:40:13.447Z,5.90
2024-02-14T23:42:43.170Z,5.90
2024-02-14T23:45:16.673Z,5.90
2024-02-14T23:47:44.118Z,5.90
2024-02-14T23:50:12.066Z,5.90
2024-02-14T23:52:40.599Z,5.90
2024-02-14T23:55:08.128Z,5.90
2024-02-14T23:57:35.204Z,5.90
